sensor_id;sensor_type;location;lat;lon;timestamp;temperature;humidity
8214;DHT22;4148;47.974;7.824;2023-06-14T00:02:08;17.70;60.30
8214;DHT22;4148;47.974;7.824;2023-06-14T00:04:37;17.70;59.80
8214;DHT22;4148;47.974;7.824;2023-06-14T00:07:07;17.70;60.30
8214;DHT22;4148;47.974;7.824;2023-06-14T00:09:37;17.60;61.00
8214;DHT22;4148;47.974;7.824;2023-06-14T00:12:06;17.50;61.70
8214;DHT22;4148;47.974;7.824;2023-06-14T00:14:35;17.40;61.30
8214;DHT22;4148;47.974;7.824;2023-06-14T00:17:03;17.40;61.30
8214;DHT22;4148;47.974;7.824;2023-06-14T00:19:34;17.20;61.60
8214;DHT22;4148;47.974;7.824;2023-06-14T00:24:33;17.20;54.30
8214;DHT22;4148;47.974;7.824;2023-06-14T00:27:01;17.10;62.50
8214;DHT22;4148;47.974;7.824;2023-06-14T00:29:28;17.00;63.00
8214;DHT22;4148;47.974;7.824;2023-06-14T00:31:56;17.00;63.00
8214;DHT22;4148;47.974;7.824;2023-06-14T00:34:24;17.00;63.70
8214;DHT22;4148;47.974;7.824;2023-06-14T00:36:52;16.70;62.30
8214;DHT22;4148;47.974;7.824;2023-06-14T00:39:20;16.60;62.80
8214;DHT22;4148;47.974;7.824;2023-06-14T00:41:49;16.70;63.20
8214;DHT22;4148;47.974;7.824;2023-06-14T00:44:17;16.70;64.20
8214;DHT22;4148;47.974;7.824;2023-06-14T00:46:45;16.70;64.50
8214;DHT22;4148;47.974;7.824;2023-06-14T00:49:14;16.70;64.20
8214;DHT22;4148;47.974;7.824;2023-06-14T00:51:43;16.50;64.00
8214;DHT22;4148;47.974;7.824;2023-06-14T00:54:12;16.40;63.20
8214;DHT22;4148;47.974;7.824;2023-06-14T00:56:40;16.30;63.10
8214;DHT22;4148;47.974;7.824;2023-06-14T00:59:11;16.30;63.90
8214;DHT22;4148;47.974;7.824;2023-06-14T01:01:39;16.30;64.60
8214;DHT22;4148;47.974;7.824;2023-06-14T01:04:07;16.00;63.70
8214;DHT22;4148;47.974;7.824;2023-06-14T01:06:41;16.00;63.60
8214;DHT22;4148;47.974;7.824;2023-06-14T01:09:17;15.90;63.70
8214;DHT22;4148;47.974;7.824;2023-06-14T01:11:50;15.80;63.80
8214;DHT22;4148;47.974;7.824;2023-06-14T01:14:24;15.80;63.90
8214;DHT22;4148;47.974;7.824;2023-06-14T01:16:53;15.60;63.90
8214;DHT22;4148;47.974;7.824;2023-06-14T01:19:22;15.60;64.70
8214;DHT22;4148;47.974;7.824;2023-06-14T01:21:52;15.50;64.70
8214;DHT22;4148;47.974;7.824;2023-06-14T01:24:23;15.50;65.40
8214;DHT22;4148;47.974;7.824;2023-06-14T01:26:53;15.40;65.20
8214;DHT22;4148;47.974;7.824;2023-06-14T01:29:23;15.50;66.60
8214;DHT22;4148;47.974;7.824;2023-06-14T01:31:53;15.60;67.30
8214;DHT22;4148;47.974;7.824;2023-06-14T01:34:21;15.60;67.80
8214;DHT22;4148;47.974;7.824;2023-06-14T01:36:50;15.40;66.80
8214;DHT22;4148;47.974;7.824;2023-06-14T01:39:18;15.20;66.80
8214;DHT22;4148;47.974;7.824;2023-06-14T01:41:48;15.30;67.40
8214;DHT22;4148;47.974;7.824;2023-06-14T01:44:17;15.40;68.10
8214;DHT22;4148;47.974;7.824;2023-06-14T01:46:46;15.20;67.80
8214;DHT22;4148;47.974;7.824;2023-06-14T01:49:14;15.30;69.00
8214;DHT22;4148;47.974;7.824;2023-06-14T01:51:42;15.30;69.30
8214;DHT22;4148;47.974;7.824;2023-06-14T01:54:10;15.30;70.20
8214;DHT22;4148;47.974;7.824;2023-06-14T01:56:38;15.20;71.30
8214;DHT22;4148;47.974;7.824;2023-06-14T01:59:07;15.20;70.50
8214;DHT22;4148;47.974;7.824;2023-06-14T02:01:35;15.10;71.00
8214;DHT22;4148;47.974;7.824;2023-06-14T02:04:03;15.10;70.60
8214;DHT22;4148;47.974;7.824;2023-06-14T02:06:31;14.90;70.40
8214;DHT22;4148;47.974;7.824;2023-06-14T02:09:01;14.90;70.70
8214;DHT22;4148;47.974;7.824;2023-06-14T02:11:30;14.80;71.20
8214;DHT22;4148;47.974;7.824;2023-06-14T02:13:58;14.80;72.00
8214;DHT22;4148;47.974;7.824;2023-06-14T02:16:28;14.90;72.40
8214;DHT22;4148;47.974;7.824;2023-06-14T02:18:56;15.00;72.70
8214;DHT22;4148;47.974;7.824;2023-06-14T02:21:24;14.80;72.70
8214;DHT22;4148;47.974;7.824;2023-06-14T02:23:52;14.90;73.00
8214;DHT22;4148;47.974;7.824;2023-06-14T02:26:20;14.90;73.50
8214;DHT22;4148;47.974;7.824;2023-06-14T02:28:49;14.80;73.50
8214;DHT22;4148;47.974;7.824;2023-06-14T02:33:46;14.80;63.60
8214;DHT22;4148;47.974;7.824;2023-06-14T02:36:14;14.80;74.80
8214;DHT22;4148;47.974;7.824;2023-06-14T02:38:42;14.60;74.20
8214;DHT22;4148;47.974;7.824;2023-06-14T02:41:10;14.70;75.80
8214;DHT22;4148;47.974;7.824;2023-06-14T02:43:38;14.70;76.50
8214;DHT22;4148;47.974;7.824;2023-06-14T02:46:06;14.80;76.60
8214;DHT22;4148;47.974;7.824;2023-06-14T02:48:34;14.80;76.60
8214;DHT22;4148;47.974;7.824;2023-06-14T02:51:03;14.80;77.00
8214;DHT22;4148;47.974;7.824;2023-06-14T02:53:35;14.60;76.80
8214;DHT22;4148;47.974;7.824;2023-06-14T02:56:03;14.60;78.20
8214;DHT22;4148;47.974;7.824;2023-06-14T02:58:31;14.40;77.60
8214;DHT22;4148;47.974;7.824;2023-06-14T03:00:59;14.40;77.80
8214;DHT22;4148;47.974;7.824;2023-06-14T03:03:30;14.30;78.50
8214;DHT22;4148;47.974;7.824;2023-06-14T03:05:58;14.30;79.70
8214;DHT22;4148;47.974;7.824;2023-06-14T03:08:32;14.40;81.10
8214;DHT22;4148;47.974;7.824;2023-06-14T03:11:05;14.40;82.60
8214;DHT22;4148;47.974;7.824;2023-06-14T03:13:33;14.40;83.00
8214;DHT22;4148;47.974;7.824;2023-06-14T03:16:01;14.30;83.30
8214;DHT22;4148;47.974;7.824;2023-06-14T03:18:30;14.20;82.60
8214;DHT22;4148;47.974;7.824;2023-06-14T03:21:02;14.10;83.30
8214;DHT22;4148;47.974;7.824;2023-06-14T03:23:31;14.00;83.30
8214;DHT22;4148;47.974;7.824;2023-06-14T03:26:00;14.10;84.70
8214;DHT22;4148;47.974;7.824;2023-06-14T03:28:27;13.90;83.80
8214;DHT22;4148;47.974;7.824;2023-06-14T03:30:55;14.10;85.50
8214;DHT22;4148;47.974;7.824;2023-06-14T03:33:23;14.20;87.70
8214;DHT22;4148;47.974;7.824;2023-06-14T03:35:51;14.00;86.60
8214;DHT22;4148;47.974;7.824;2023-06-14T03:38:19;13.90;86.40
8214;DHT22;4148;47.974;7.824;2023-06-14T03:40:49;13.90;87.50
8214;DHT22;4148;47.974;7.824;2023-06-14T03:45:45;14.00;78.10
8214;DHT22;4148;47.974;7.824;2023-06-14T03:48:13;13.80;88.50
8214;DHT22;4148;47.974;7.824;2023-06-14T03:50:41;13.70;90.90
8214;DHT22;4148;47.974;7.824;2023-06-14T03:53:09;13.70;88.20
8214;DHT22;4148;47.974;7.824;2023-06-14T03:55:37;13.60;88.20
8214;DHT22;4148;47.974;7.824;2023-06-14T03:58:27;13.60;89.90
8214;DHT22;4148;47.974;7.824;2023-06-14T04:00:55;13.90;91.50
8214;DHT22;4148;47.974;7.824;2023-06-14T04:03:23;13.70;90.70
8214;DHT22;4148;47.974;7.824;2023-06-14T04:05:56;13.70;91.40
8214;DHT22;4148;47.974;7.824;2023-06-14T04:08:26;13.60;91.40
8214;DHT22;4148;47.974;7.824;2023-06-14T04:10:54;13.70;92.10
8214;DHT22;4148;47.974;7.824;2023-06-14T04:13:22;13.60;92.30
8214;DHT22;4148;47.974;7.824;2023-06-14T04:15:51;13.60;92.20
8214;DHT22;4148;47.974;7.824;2023-06-14T04:18:19;13.50;92.90
8214;DHT22;4148;47.974;7.824;2023-06-14T04:20:50;13.60;93.20
8214;DHT22;4148;47.974;7.824;2023-06-14T04:23:20;13.60;93.40
8214;DHT22;4148;47.974;7.824;2023-06-14T04:25:48;13.60;93.90
8214;DHT22;4148;47.974;7.824;2023-06-14T04:28:16;13.60;94.80
8214;DHT22;4148;47.974;7.824;2023-06-14T04:30:45;13.60;95.20
8214;DHT22;4148;47.974;7.824;2023-06-14T04:33:15;13.70;96.40
8214;DHT22;4148;47.974;7.824;2023-06-14T04:35:44;13.60;97.00
8214;DHT22;4148;47.974;7.824;2023-06-14T04:38:14;13.60;97.80
8214;DHT22;4148;47.974;7.824;2023-06-14T04:40:42;14.00;99.70
8214;DHT22;4148;47.974;7.824;2023-06-14T04:43:10;14.00;99.90
8214;DHT22;4148;47.974;7.824;2023-06-14T04:45:40;13.90;99.90
8214;DHT22;4148;47.974;7.824;2023-06-14T04:48:12;13.90;99.90
8214;DHT22;4148;47.974;7.824;2023-06-14T04:50:47;13.80;99.90
8214;DHT22;4148;47.974;7.824;2023-06-14T04:53:20;13.80;99.90
8214;DHT22;4148;47.974;7.824;2023-06-14T04:55:49;14.00;99.90
8214;DHT22;4148;47.974;7.824;2023-06-14T04:58:17;14.00;99.90
8214;DHT22;4148;47.974;7.824;2023-06-14T05:00:45;13.90;99.90
8214;DHT22;4148;47.974;7.824;2023-06-14T05:03:14;13.90;99.90
8214;DHT22;4148;47.974;7.824;2023-06-14T05:05:43;14.00;99.90
8214;DHT22;4148;47.974;7.824;2023-06-14T05:08:12;14.00;99.90
8214;DHT22;4148;47.974;7.824;2023-06-14T05:10:40;14.20;99.90
8214;DHT22;4148;47.974;7.824;2023-06-14T05:13:08;14.30;99.90
8214;DHT22;4148;47.974;7.824;2023-06-14T05:15:37;14.50;99.90
8214;DHT22;4148;47.974;7.824;2023-06-14T05:18:05;14.60;99.90
8214;DHT22;4148;47.974;7.824;2023-06-14T05:20:35;14.70;99.90
8214;DHT22;4148;47.974;7.824;2023-06-14T05:23:06;14.80;99.90
8214;DHT22;4148;47.974;7.824;2023-06-14T05:25:34;15.00;99.90
8214;DHT22;4148;47.974;7.824;2023-06-14T05:28:02;15.10;99.90
8214;DHT22;4148;47.974;7.824;2023-06-14T05:30:30;15.30;99.90
8214;DHT22;4148;47.974;7.824;2023-06-14T05:33:00;15.40;99.90
8214;DHT22;4148;47.974;7.824;2023-06-14T05:35:28;15.50;99.90
8214;DHT22;4148;47.974;7.824;2023-06-14T05:37:56;15.70;99.90
8214;DHT22;4148;47.974;7.824;2023-06-14T05:40:25;15.70;99.90
8214;DHT22;4148;47.974;7.824;2023-06-14T05:42:53;15.90;99.90
8214;DHT22;4148;47.974;7.824;2023-06-14T05:45:21;15.90;99.90
8214;DHT22;4148;47.974;7.824;2023-06-14T05:47:49;16.00;99.90
8214;DHT22;4148;47.974;7.824;2023-06-14T05:50:17;16.00;99.90
8214;DHT22;4148;47.974;7.824;2023-06-14T05:52:45;16.00;99.90
8214;DHT22;4148;47.974;7.824;2023-06-14T05:55:16;16.20;99.90
8214;DHT22;4148;47.974;7.824;2023-06-14T05:57:46;16.30;99.90
8214;DHT22;4148;47.974;7.824;2023-06-14T06:00:15;16.40;99.90
8214;DHT22;4148;47.974;7.824;2023-06-14T06:02:44;16.50;99.90
8214;DHT22;4148;47.974;7.824;2023-06-14T06:05:14;16.60;99.90
8214;DHT22;4148;47.974;7.824;2023-06-14T06:07:43;16.70;99.90
8214;DHT22;4148;47.974;7.824;2023-06-14T06:10:12;16.90;99.90
8214;DHT22;4148;47.974;7.824;2023-06-14T06:12:41;17.00;99.90
8214;DHT22;4148;47.974;7.824;2023-06-14T06:15:11;17.10;99.90
8214;DHT22;4148;47.974;7.824;2023-06-14T06:17:40;17.20;99.90
8214;DHT22;4148;47.974;7.824;2023-06-14T06:20:21;17.30;99.90
8214;DHT22;4148;47.974;7.824;2023-06-14T06:22:54;17.60;99.90
8214;DHT22;4148;47.974;7.824;2023-06-14T06:25:22;18.00;99.90
8214;DHT22;4148;47.974;7.824;2023-06-14T06:27:53;18.40;99.90
8214;DHT22;4148;47.974;7.824;2023-06-14T06:30:22;18.80;99.90
8214;DHT22;4148;47.974;7.824;2023-06-14T06:32:50;19.10;99.90
8214;DHT22;4148;47.974;7.824;2023-06-14T06:35:18;19.40;99.90
8214;DHT22;4148;47.974;7.824;2023-06-14T06:37:46;19.60;99.90
8214;DHT22;4148;47.974;7.824;2023-06-14T06:40:14;20.10;99.90
8214;DHT22;4148;47.974;7.824;2023-06-14T06:42:42;20.20;99.90
8214;DHT22;4148;47.974;7.824;2023-06-14T06:45:10;20.20;99.90
8214;DHT22;4148;47.974;7.824;2023-06-14T06:47:40;20.30;99.90
8214;DHT22;4148;47.974;7.824;2023-06-14T06:50:08;20.40;99.90
8214;DHT22;4148;47.974;7.824;2023-06-14T06:52:36;20.30;99.90
8214;DHT22;4148;47.974;7.824;2023-06-14T06:55:04;20.40;99.90
8214;DHT22;4148;47.974;7.824;2023-06-14T06:57:32;20.50;99.90
8214;DHT22;4148;47.974;7.824;2023-06-14T07:00:00;20.50;99.90
8214;DHT22;4148;47.974;7.824;2023-06-14T07:02:29;20.70;99.90
8214;DHT22;4148;47.974;7.824;2023-06-14T07:04:58;20.90;99.90
8214;DHT22;4148;47.974;7.824;2023-06-14T07:07:26;20.90;99.90
8214;DHT22;4148;47.974;7.824;2023-06-14T07:09:54;20.90;99.90
8214;DHT22;4148;47.974;7.824;2023-06-14T07:12:24;20.90;99.90
8214;DHT22;4148;47.974;7.824;2023-06-14T07:14:51;21.00;99.90
8214;DHT22;4148;47.974;7.824;2023-06-14T07:17:19;21.00;99.90
8214;DHT22;4148;47.974;7.824;2023-06-14T07:19:48;21.00;99.90
8214;DHT22;4148;47.974;7.824;2023-06-14T07:22:17;21.00;99.90
8214;DHT22;4148;47.974;7.824;2023-06-14T07:24:45;21.20;99.90
8214;DHT22;4148;47.974;7.824;2023-06-14T07:27:13;21.30;99.90
8214;DHT22;4148;47.974;7.824;2023-06-14T07:29:41;21.30;99.90
8214;DHT22;4148;47.974;7.824;2023-06-14T07:32:09;21.30;99.90
8214;DHT22;4148;47.974;7.824;2023-06-14T07:34:37;21.40;99.90
8214;DHT22;4148;47.974;7.824;2023-06-14T07:37:05;21.50;99.90
8214;DHT22;4148;47.974;7.824;2023-06-14T07:39:34;21.60;99.90
8214;DHT22;4148;47.974;7.824;2023-06-14T07:42:02;21.60;99.90
8214;DHT22;4148;47.974;7.824;2023-06-14T07:44:31;21.80;99.90
8214;DHT22;4148;47.974;7.824;2023-06-14T07:46:59;21.90;99.90
8214;DHT22;4148;47.974;7.824;2023-06-14T07:49:27;22.10;99.90
8214;DHT22;4148;47.974;7.824;2023-06-14T07:51:55;22.20;99.90
8214;DHT22;4148;47.974;7.824;2023-06-14T07:54:23;22.30;99.90
8214;DHT22;4148;47.974;7.824;2023-06-14T07:56:54;22.40;99.90
8214;DHT22;4148;47.974;7.824;2023-06-14T07:59:22;22.50;99.90
8214;DHT22;4148;47.974;7.824;2023-06-14T08:01:50;22.70;99.90
8214;DHT22;4148;47.974;7.824;2023-06-14T08:04:19;22.90;99.90
8214;DHT22;4148;47.974;7.824;2023-06-14T08:06:46;23.20;99.90
8214;DHT22;4148;47.974;7.824;2023-06-14T08:09:15;23.30;99.90
8214;DHT22;4148;47.974;7.824;2023-06-14T08:11:43;23.60;99.90
8214;DHT22;4148;47.974;7.824;2023-06-14T08:14:12;23.70;99.90
8214;DHT22;4148;47.974;7.824;2023-06-14T08:16:40;23.90;99.90
8214;DHT22;4148;47.974;7.824;2023-06-14T08:19:08;24.20;99.90
8214;DHT22;4148;47.974;7.824;2023-06-14T08:21:36;24.30;99.90
8214;DHT22;4148;47.974;7.824;2023-06-14T08:24:04;24.60;99.90
8214;DHT22;4148;47.974;7.824;2023-06-14T08:26:32;24.80;99.90
8214;DHT22;4148;47.974;7.824;2023-06-14T08:29:00;25.00;99.90
8214;DHT22;4148;47.974;7.824;2023-06-14T08:31:29;25.30;99.90
8214;DHT22;4148;47.974;7.824;2023-06-14T08:33:58;25.60;99.90
8214;DHT22;4148;47.974;7.824;2023-06-14T08:36:26;25.90;99.90
8214;DHT22;4148;47.974;7.824;2023-06-14T08:38:54;26.20;99.90
8214;DHT22;4148;47.974;7.824;2023-06-14T08:41:23;26.30;99.90
8214;DHT22;4148;47.974;7.824;2023-06-14T08:43:52;26.40;99.90
8214;DHT22;4148;47.974;7.824;2023-06-14T08:46:20;26.60;99.90
8214;DHT22;4148;47.974;7.824;2023-06-14T08:48:51;26.90;99.90
8214;DHT22;4148;47.974;7.824;2023-06-14T08:51:19;27.00;99.90
8214;DHT22;4148;47.974;7.824;2023-06-14T08:53:52;27.20;99.90
8214;DHT22;4148;47.974;7.824;2023-06-14T08:56:21;27.60;99.90
8214;DHT22;4148;47.974;7.824;2023-06-14T08:58:52;27.80;99.90
8214;DHT22;4148;47.974;7.824;2023-06-14T09:01:20;28.10;99.90
8214;DHT22;4148;47.974;7.824;2023-06-14T09:03:51;28.40;99.90
8214;DHT22;4148;47.974;7.824;2023-06-14T09:06:21;28.60;99.90
8214;DHT22;4148;47.974;7.824;2023-06-14T09:08:51;28.50;99.90
8214;DHT22;4148;47.974;7.824;2023-06-14T09:11:20;28.80;99.90
8214;DHT22;4148;47.974;7.824;2023-06-14T09:13:48;28.70;99.90
8214;DHT22;4148;47.974;7.824;2023-06-14T09:16:16;28.80;99.90
8214;DHT22;4148;47.974;7.824;2023-06-14T09:18:46;28.70;99.90
8214;DHT22;4148;47.974;7.824;2023-06-14T09:21:17;28.90;99.90
8214;DHT22;4148;47.974;7.824;2023-06-14T09:23:46;29.30;99.90
8214;DHT22;4148;47.974;7.824;2023-06-14T09:26:17;29.30;99.90
8214;DHT22;4148;47.974;7.824;2023-06-14T09:28:46;29.40;99.90
8214;DHT22;4148;47.974;7.824;2023-06-14T09:31:16;29.50;99.90
8214;DHT22;4148;47.974;7.824;2023-06-14T09:33:45;29.50;99.90
8214;DHT22;4148;47.974;7.824;2023-06-14T09:36:17;29.60;99.90
8214;DHT22;4148;47.974;7.824;2023-06-14T09:38:52;29.70;99.90
8214;DHT22;4148;47.974;7.824;2023-06-14T09:41:20;30.10;99.90
8214;DHT22;4148;47.974;7.824;2023-06-14T09:43:48;30.20;99.90
8214;DHT22;4148;47.974;7.824;2023-06-14T09:46:17;30.00;99.90
8214;DHT22;4148;47.974;7.824;2023-06-14T09:48:46;30.00;99.90
8214;DHT22;4148;47.974;7.824;2023-06-14T09:51:17;30.00;99.90
8214;DHT22;4148;47.974;7.824;2023-06-14T09:53:49;30.30;99.90
8214;DHT22;4148;47.974;7.824;2023-06-14T09:56:21;30.60;99.90
8214;DHT22;4148;47.974;7.824;2023-06-14T09:58:50;30.60;99.90
8214;DHT22;4148;47.974;7.824;2023-06-14T10:01:34;30.80;99.90
8214;DHT22;4148;47.974;7.824;2023-06-14T10:04:04;30.90;99.90
8214;DHT22;4148;47.974;7.824;2023-06-14T10:06:40;31.10;99.90
8214;DHT22;4148;47.974;7.824;2023-06-14T10:09:09;31.20;99.90
8214;DHT22;4148;47.974;7.824;2023-06-14T10:11:38;31.30;99.90
8214;DHT22;4148;47.974;7.824;2023-06-14T10:14:11;31.60;99.90
8214;DHT22;4148;47.974;7.824;2023-06-14T10:16:47;31.40;99.90
8214;DHT22;4148;47.974;7.824;2023-06-14T10:19:20;31.60;99.90
8214;DHT22;4148;47.974;7.824;2023-06-14T10:22:01;31.80;99.90
8214;DHT22;4148;47.974;7.824;2023-06-14T10:24:33;31.70;99.90
8214;DHT22;4148;47.974;7.824;2023-06-14T10:27:01;31.90;99.90
8214;DHT22;4148;47.974;7.824;2023-06-14T10:29:29;32.00;99.90
8214;DHT22;4148;47.974;7.824;2023-06-14T10:32:00;32.20;99.90
8214;DHT22;4148;47.974;7.824;2023-06-14T10:34:30;32.40;99.90
8214;DHT22;4148;47.974;7.824;2023-06-14T10:37:02;32.70;99.90
8214;DHT22;4148;47.974;7.824;2023-06-14T10:39:31;32.80;99.90
8214;DHT22;4148;47.974;7.824;2023-06-14T10:42:01;32.80;99.90
8214;DHT22;4148;47.974;7.824;2023-06-14T10:44:42;33.00;99.90
8214;DHT22;4148;47.974;7.824;2023-06-14T10:47:24;32.90;99.90
8214;DHT22;4148;47.974;7.824;2023-06-14T10:49:54;33.00;99.90
8214;DHT22;4148;47.974;7.824;2023-06-14T10:52:26;33.00;99.90
8214;DHT22;4148;47.974;7.824;2023-06-14T10:55:09;33.10;99.90
8214;DHT22;4148;47.974;7.824;2023-06-14T10:57:39;33.20;99.90
8214;DHT22;4148;47.974;7.824;2023-06-14T11:00:18;33.40;99.90
8214;DHT22;4148;47.974;7.824;2023-06-14T11:03:36;33.40;99.90
8214;DHT22;4148;47.974;7.824;2023-06-14T11:06:13;33.00;99.90
8214;DHT22;4148;47.974;7.824;2023-06-14T11:09:20;33.00;99.90
8214;DHT22;4148;47.974;7.824;2023-06-14T11:11:51;32.80;99.90
8214;DHT22;4148;47.974;7.824;2023-06-14T11:14:21;32.50;99.90
8214;DHT22;4148;47.974;7.824;2023-06-14T11:16:49;32.50;99.90
8214;DHT22;4148;47.974;7.824;2023-06-14T11:19:17;32.40;99.90
8214;DHT22;4148;47.974;7.824;2023-06-14T11:21:47;32.40;99.90
8214;DHT22;4148;47.974;7.824;2023-06-14T11:24:17;32.30;99.90
8214;DHT22;4148;47.974;7.824;2023-06-14T11:26:47;32.30;99.90
8214;DHT22;4148;47.974;7.824;2023-06-14T11:29:16;32.00;99.90
8214;DHT22;4148;47.974;7.824;2023-06-14T11:31:44;32.10;99.90
8214;DHT22;4148;47.974;7.824;2023-06-14T11:34:13;32.10;99.90
8214;DHT22;4148;47.974;7.824;2023-06-14T11:36:42;31.80;99.90
8214;DHT22;4148;47.974;7.824;2023-06-14T11:39:10;31.80;99.90
8214;DHT22;4148;47.974;7.824;2023-06-14T11:41:40;31.50;99.90
8214;DHT22;4148;47.974;7.824;2023-06-14T11:44:09;31.30;99.90
8214;DHT22;4148;47.974;7.824;2023-06-14T11:46:38;31.20;99.90
8214;DHT22;4148;47.974;7.824;2023-06-14T11:49:07;31.10;99.90
8214;DHT22;4148;47.974;7.824;2023-06-14T11:51:36;31.00;99.90
8214;DHT22;4148;47.974;7.824;2023-06-14T11:54:06;30.80;99.90
8214;DHT22;4148;47.974;7.824;2023-06-14T11:56:34;30.70;99.90
8214;DHT22;4148;47.974;7.824;2023-06-14T11:59:04;30.60;99.90
8214;DHT22;4148;47.974;7.824;2023-06-14T12:01:36;30.60;99.90
8214;DHT22;4148;47.974;7.824;2023-06-14T12:04:05;30.50;99.90
8214;DHT22;4148;47.974;7.824;2023-06-14T12:06:33;30.50;99.90
8214;DHT22;4148;47.974;7.824;2023-06-14T12:09:06;30.30;99.90
8214;DHT22;4148;47.974;7.824;2023-06-14T12:11:39;30.10;99.90
8214;DHT22;4148;47.974;7.824;2023-06-14T12:14:09;30.10;99.90
8214;DHT22;4148;47.974;7.824;2023-06-14T12:16:38;29.80;99.90
8214;DHT22;4148;47.974;7.824;2023-06-14T12:19:12;29.80;99.90
8214;DHT22;4148;47.974;7.824;2023-06-14T12:21:40;29.80;99.90
8214;DHT22;4148;47.974;7.824;2023-06-14T12:24:08;29.80;99.90
8214;DHT22;4148;47.974;7.824;2023-06-14T12:26:40;29.70;99.90
8214;DHT22;4148;47.974;7.824;2023-06-14T12:29:09;29.60;99.90
8214;DHT22;4148;47.974;7.824;2023-06-14T12:31:39;29.50;99.90
8214;DHT22;4148;47.974;7.824;2023-06-14T12:34:08;29.60;99.90
8214;DHT22;4148;47.974;7.824;2023-06-14T12:36:36;29.50;99.90
8214;DHT22;4148;47.974;7.824;2023-06-14T12:39:08;29.40;99.90
8214;DHT22;4148;47.974;7.824;2023-06-14T12:41:36;29.40;99.90
8214;DHT22;4148;47.974;7.824;2023-06-14T12:44:04;29.30;99.90
8214;DHT22;4148;47.974;7.824;2023-06-14T12:46:34;29.20;99.90
8214;DHT22;4148;47.974;7.824;2023-06-14T12:49:02;29.10;99.90
8214;DHT22;4148;47.974;7.824;2023-06-14T12:51:29;29.10;99.90
8214;DHT22;4148;47.974;7.824;2023-06-14T12:53:57;29.10;99.90
8214;DHT22;4148;47.974;7.824;2023-06-14T12:56:25;29.00;99.90
8214;DHT22;4148;47.974;7.824;2023-06-14T12:58:53;28.80;99.90
8214;DHT22;4148;47.974;7.824;2023-06-14T13:01:22;28.70;99.90
8214;DHT22;4148;47.974;7.824;2023-06-14T13:03:54;28.80;99.90
8214;DHT22;4148;47.974;7.824;2023-06-14T13:06:22;28.80;99.90
8214;DHT22;4148;47.974;7.824;2023-06-14T13:08:51;28.70;99.90
8214;DHT22;4148;47.974;7.824;2023-06-14T13:11:21;28.60;99.90
8214;DHT22;4148;47.974;7.824;2023-06-14T13:13:49;28.40;99.90
8214;DHT22;4148;47.974;7.824;2023-06-14T13:16:17;28.40;99.90
8214;DHT22;4148;47.974;7.824;2023-06-14T13:18:45;28.40;99.90
8214;DHT22;4148;47.974;7.824;2023-06-14T13:21:14;28.40;99.90
8214;DHT22;4148;47.974;7.824;2023-06-14T13:23:42;28.40;99.90
8214;DHT22;4148;47.974;7.824;2023-06-14T13:26:10;28.20;99.90
8214;DHT22;4148;47.974;7.824;2023-06-14T13:28:38;28.10;99.90
8214;DHT22;4148;47.974;7.824;2023-06-14T13:31:06;28.10;99.90
8214;DHT22;4148;47.974;7.824;2023-06-14T13:33:34;28.00;99.90
8214;DHT22;4148;47.974;7.824;2023-06-14T13:36:02;28.00;99.90
8214;DHT22;4148;47.974;7.824;2023-06-14T13:38:31;28.00;99.90
8214;DHT22;4148;47.974;7.824;2023-06-14T13:40:59;28.10;99.90
8214;DHT22;4148;47.974;7.824;2023-06-14T13:43:27;28.00;99.90
8214;DHT22;4148;47.974;7.824;2023-06-14T13:45:55;27.90;99.90
8214;DHT22;4148;47.974;7.824;2023-06-14T13:48:23;27.90;99.90
8214;DHT22;4148;47.974;7.824;2023-06-14T13:50:51;27.90;99.90
8214;DHT22;4148;47.974;7.824;2023-06-14T13:53:19;27.80;99.90
8214;DHT22;4148;47.974;7.824;2023-06-14T13:55:48;27.80;99.80
8214;DHT22;4148;47.974;7.824;2023-06-14T13:58:16;27.70;99.60
8214;DHT22;4148;47.974;7.824;2023-06-14T14:00:44;27.70;99.50
8214;DHT22;4148;47.974;7.824;2023-06-14T14:03:12;27.70;99.60
8214;DHT22;4148;47.974;7.824;2023-06-14T14:05:39;27.60;99.50
8214;DHT22;4148;47.974;7.824;2023-06-14T14:08:07;27.50;99.00
8214;DHT22;4148;47.974;7.824;2023-06-14T14:10:35;27.50;99.10
8214;DHT22;4148;47.974;7.824;2023-06-14T14:13:04;27.50;99.00
8214;DHT22;4148;47.974;7.824;2023-06-14T14:15:32;27.50;99.20
8214;DHT22;4148;47.974;7.824;2023-06-14T14:18:01;27.60;99.30
8214;DHT22;4148;47.974;7.824;2023-06-14T14:20:30;27.60;99.30
8214;DHT22;4148;47.974;7.824;2023-06-14T14:22:58;27.50;99.20
8214;DHT22;4148;47.974;7.824;2023-06-14T14:25:26;27.40;99.00
8214;DHT22;4148;47.974;7.824;2023-06-14T14:27:54;27.40;98.90
8214;DHT22;4148;47.974;7.824;2023-06-14T14:30:24;27.20;98.40
8214;DHT22;4148;47.974;7.824;2023-06-14T14:32:53;27.20;98.30
8214;DHT22;4148;47.974;7.824;2023-06-14T14:35:21;27.20;98.40
8214;DHT22;4148;47.974;7.824;2023-06-14T14:37:51;27.10;98.20
8214;DHT22;4148;47.974;7.824;2023-06-14T14:40:20;27.00;97.90
8214;DHT22;4148;47.974;7.824;2023-06-14T14:42:48;27.00;97.90
8214;DHT22;4148;47.974;7.824;2023-06-14T14:45:16;27.00;97.60
8214;DHT22;4148;47.974;7.824;2023-06-14T14:47:45;26.90;97.40
8214;DHT22;4148;47.974;7.824;2023-06-14T14:50:13;26.90;97.70
8214;DHT22;4148;47.974;7.824;2023-06-14T14:52:43;27.00;97.60
8214;DHT22;4148;47.974;7.824;2023-06-14T14:55:12;27.00;97.70
8214;DHT22;4148;47.974;7.824;2023-06-14T14:57:40;27.00;97.80
8214;DHT22;4148;47.974;7.824;2023-06-14T15:00:08;26.90;98.00
8214;DHT22;4148;47.974;7.824;2023-06-14T15:02:37;26.90;99.90
8214;DHT22;4148;47.974;7.824;2023-06-14T15:05:07;26.90;97.60
8214;DHT22;4148;47.974;7.824;2023-06-14T15:07:34;26.90;97.80
8214;DHT22;4148;47.974;7.824;2023-06-14T15:10:03;26.90;98.00
8214;DHT22;4148;47.974;7.824;2023-06-14T15:12:31;26.80;97.70
8214;DHT22;4148;47.974;7.824;2023-06-14T15:14:59;26.80;97.70
8214;DHT22;4148;47.974;7.824;2023-06-14T15:17:27;26.80;97.70
8214;DHT22;4148;47.974;7.824;2023-06-14T15:19:55;26.70;97.60
8214;DHT22;4148;47.974;7.824;2023-06-14T15:22:24;26.60;97.50
8214;DHT22;4148;47.974;7.824;2023-06-14T15:24:52;26.60;99.90
8214;DHT22;4148;47.974;7.824;2023-06-14T15:27:20;26.60;97.30
8214;DHT22;4148;47.974;7.824;2023-06-14T15:29:49;26.50;97.20
8214;DHT22;4148;47.974;7.824;2023-06-14T15:32:17;26.50;97.20
8214;DHT22;4148;47.974;7.824;2023-06-14T15:34:45;26.50;97.40
8214;DHT22;4148;47.974;7.824;2023-06-14T15:37:13;26.50;97.30
8214;DHT22;4148;47.974;7.824;2023-06-14T15:39:42;26.50;97.20
8214;DHT22;4148;47.974;7.824;2023-06-14T15:42:10;26.40;97.20
8214;DHT22;4148;47.974;7.824;2023-06-14T15:44:38;26.50;97.40
8214;DHT22;4148;47.974;7.824;2023-06-14T15:47:08;26.50;97.50
8214;DHT22;4148;47.974;7.824;2023-06-14T15:49:36;26.40;97.40
8214;DHT22;4148;47.974;7.824;2023-06-14T15:52:04;26.40;97.50
8214;DHT22;4148;47.974;7.824;2023-06-14T15:54:32;26.40;97.50
8214;DHT22;4148;47.974;7.824;2023-06-14T15:57:02;26.50;97.50
8214;DHT22;4148;47.974;7.824;2023-06-14T15:59:30;26.40;97.30
8214;DHT22;4148;47.974;7.824;2023-06-14T16:01:58;26.40;97.30
8214;DHT22;4148;47.974;7.824;2023-06-14T16:04:26;26.30;96.90
8214;DHT22;4148;47.974;7.824;2023-06-14T16:06:53;26.30;97.20
8214;DHT22;4148;47.974;7.824;2023-06-14T16:09:21;26.30;97.10
8214;DHT22;4148;47.974;7.824;2023-06-14T16:11:49;26.30;96.80
8214;DHT22;4148;47.974;7.824;2023-06-14T16:14:19;26.20;97.00
8214;DHT22;4148;47.974;7.824;2023-06-14T16:16:47;26.20;96.70
8214;DHT22;4148;47.974;7.824;2023-06-14T16:19:17;26.10;96.60
8214;DHT22;4148;47.974;7.824;2023-06-14T16:21:45;26.00;96.50
8214;DHT22;4148;47.974;7.824;2023-06-14T16:24:13;26.00;96.50